Time;durP1;ratioP1;P1;durP2;ratioP2;P2;SDS_P1;SDS_P2;PMS_P1;PMS_P2;Temp;Humidity;BMP_temperature;BMP_pressure;BME280_temperature;BME280_humidity;BME280_pressure;Samples;Min_cycle;Max_cycle;Signal;HPM_P1;HPM_P2
2024/03/15 00:00:17;;;;;;;3.60;1.43;;;23.50;64.00;;;;;;5081585;28;20458;-85
2024/03/15 00:02:45;;;;;;;1.80;1.00;;;23.50;64.00;;;;;;5082230;28;20446;-85
2024/03/15 00:05:12;;;;;;;1.70;1.00;;;23.50;64.00;;;;;;5082076;28;20994;-88
2024/03/15 00:07:39;;;;;;;1.70;1.00;;;23.50;63.90;;;;;;5081734;28;20451;-88
2024/03/15 00:10:06;;;;;;;1.70;1.00;;;23.50;64.00;;;;;;5081992;28;20494;-88
2024/03/15 00:12:33;;;;;;;1.50;0.90;;;23.40;64.00;;;;;;5081812;28;20434;-85
2024/03/15 00:15:00;;;;;;;1.77;1.20;;;23.50;63.90;;;;;;5081974;28;20844;-85
2024/03/15 00:17:28;;;;;;;5.87;1.43;;;23.40;63.90;;;;;;5081587;28;20433;-84
2024/03/15 00:19:54;;;;;;;1.70;1.03;;;23.50;64.00;;;;;;5081618;28;20442;-87
2024/03/15 00:22:23;;;;;;;2.37;1.30;;;23.40;63.90;;;;;;5081306;28;20947;-87
2024/03/15 00:24:50;;;;;;;1.70;1.20;;;23.40;63.80;;;;;;5081840;28;20434;-85
2024/03/15 00:27:17;;;;;;;2.10;1.20;;;23.50;64.00;;;;;;5080972;28;20431;-85
2024/03/15 00:29:44;;;;;;;1.90;1.33;;;23.50;63.90;;;;;;5081141;28;20481;-85
2024/03/15 00:32:11;;;;;;;2.47;1.20;;;23.50;64.10;;;;;;5081380;28;20466;-85
2024/03/15 00:34:38;;;;;;;2.50;1.27;;;23.40;63.90;;;;;;5081154;28;20439;-85
2024/03/15 00:37:08;;;;;;;1.50;0.90;;;23.40;63.90;;;;;;5081020;28;20446;-88
2024/03/15 00:39:35;;;;;;;2.80;1.40;;;23.40;63.90;;;;;;5081722;28;20447;-85
2024/03/15 00:42:02;;;;;;;1.70;1.00;;;23.50;64.00;;;;;;5081015;28;20435;-84
2024/03/15 00:44:29;;;;;;;1.90;0.90;;;23.40;63.90;;;;;;5097935;28;20426;-85
2024/03/15 00:46:56;;;;;;;2.67;1.10;;;23.50;64.00;;;;;;5080721;28;20431;-88
2024/03/15 00:49:22;;;;;;;1.77;1.33;;;23.40;63.90;;;;;;5106405;28;20489;-87
2024/03/15 00:51:49;;;;;;;2.17;1.10;;;23.40;63.80;;;;;;5106598;28;20522;-85
2024/03/15 00:54:16;;;;;;;1.60;0.90;;;23.40;63.90;;;;;;5089746;28;20445;-85
2024/03/15 00:56:43;;;;;;;2.37;1.40;;;23.40;63.80;;;;;;5087413;28;20431;-84
2024/03/15 00:59:10;;;;;;;1.63;1.20;;;23.40;63.80;;;;;;5080644;28;20944;-87
2024/03/15 01:01:38;;;;;;;1.53;1.00;;;23.40;63.90;;;;;;5080642;28;20802;-85
2024/03/15 01:04:05;;;;;;;1.60;0.90;;;23.40;63.80;;;;;;5081096;28;20462;-85
2024/03/15 01:06:32;;;;;;;2.43;1.40;;;23.40;63.80;;;;;;5080674;28;20431;-85
2024/03/15 01:08:59;;;;;;;2.07;1.10;;;23.40;63.90;;;;;;5080709;28;20439;-87
2024/03/15 01:11:28;;;;;;;1.77;1.00;;;23.40;63.90;;;;;;5080427;28;20508;-85
2024/03/15 01:13:57;;;;;;;1.50;0.90;;;23.40;63.80;;;;;;5081322;28;20749;-88
2024/03/15 01:16:24;;;;;;;1.70;0.97;;;23.40;64.70;;;;;;5080841;28;20443;-87
2024/03/15 01:18:53;;;;;;;1.60;1.07;;;23.40;63.90;;;;;;5080434;28;20484;-85
2024/03/15 01:21:19;;;;;;;1.97;1.30;;;23.40;63.90;;;;;;5080746;28;20801;-84
2024/03/15 01:23:47;;;;;;;1.60;0.80;;;23.40;63.90;;;;;;5080365;28;20427;-85
2024/03/15 01:26:15;;;;;;;4.90;1.10;;;23.30;63.80;;;;;;5080338;28;20813;-87
2024/03/15 01:28:42;;;;;;;2.27;1.10;;;23.30;63.80;;;;;;5080447;28;20442;-87
2024/03/15 01:31:09;;;;;;;1.63;1.00;;;23.40;63.90;;;;;;5080053;28;20483;-87
2024/03/15 01:33:36;;;;;;;1.70;1.10;;;23.40;63.90;;;;;;5080097;28;20789;-87
2024/03/15 01:36:03;;;;;;;1.70;1.07;;;23.30;63.80;;;;;;5080262;28;20435;-87
2024/03/15 01:38:31;;;;;;;1.60;1.00;;;23.30;63.80;;;;;;5079946;28;20427;-88
2024/03/15 01:40:58;;;;;;;1.70;1.10;;;23.30;63.80;;;;;;5080887;28;20466;-88
2024/03/15 01:43:28;;;;;;;2.07;1.00;;;23.30;63.80;;;;;;5080204;28;20463;-85
2024/03/15 01:45:55;;;;;;;1.70;0.90;;;23.30;63.80;;;;;;5080900;28;20431;-88
2024/03/15 01:48:22;;;;;;;1.90;1.10;;;23.30;63.80;;;;;;5079978;28;20435;-87
2024/03/15 01:50:49;;;;;;;1.77;1.13;;;23.30;63.80;;;;;;5079769;28;20489;-88
2024/03/15 01:53:17;;;;;;;1.50;0.90;;;23.30;63.80;;;;;;5079958;28;20929;-87
2024/03/15 01:55:44;;;;;;;1.60;1.07;;;23.30;63.80;;;;;;5080461;28;20439;-88
2024/03/15 01:58:11;;;;;;;1.50;0.90;;;23.40;63.90;;;;;;5079603;28;20759;-88
2024/03/15 02:00:41;;;;;;;1.60;1.00;;;23.30;63.80;;;;;;5079925;28;20807;-87
2024/03/15 02:03:08;;;;;;;1.70;1.00;;;23.30;63.80;;;;;;5080167;28;20442;-88
2024/03/15 02:05:35;;;;;;;1.60;1.00;;;23.30;63.80;;;;;;5079922;28;20449;-86
2024/03/15 02:08:03;;;;;;;1.80;1.10;;;23.30;63.80;;;;;;5079565;28;20435;-88
2024/03/15 02:10:29;;;;;;;1.90;1.00;;;23.30;63.80;;;;;;5079747;28;20482;-86
2024/03/15 02:12:56;;;;;;;1.57;1.00;;;23.20;63.70;;;;;;5079512;28;20426;-89
2024/03/15 02:15:23;;;;;;;1.80;0.90;;;23.30;63.80;;;;;;5079710;28;20439;-86
2024/03/15 02:17:50;;;;;;;1.67;1.00;;;23.30;63.80;;;;;;5079230;28;20441;-85
2024/03/15 02:20:19;;;;;;;1.70;1.00;;;23.30;63.80;;;;;;5079442;28;20811;-87
2024/03/15 02:22:46;;;;;;;1.57;0.90;;;23.30;63.80;;;;;;5079582;28;20437;-85
2024/03/15 02:25:13;;;;;;;1.60;1.00;;;23.20;63.70;;;;;;5079273;28;20435;-87
2024/03/15 02:27:40;;;;;;;1.60;0.90;;;23.20;63.80;;;;;;5079442;28;20445;-85
2024/03/15 02:30:07;;;;;;;1.60;1.00;;;23.20;63.80;;;;;;5078937;28;20465;-84
2024/03/15 02:32:34;;;;;;;1.97;1.27;;;23.20;63.80;;;;;;5079604;28;20442;-85
2024/03/15 02:35:04;;;;;;;2.00;1.10;;;23.20;63.80;;;;;;5079625;28;20807;-88
2024/03/15 02:37:32;;;;;;;1.50;0.90;;;23.20;63.80;;;;;;5080587;28;20989;-88
2024/03/15 02:39:58;;;;;;;1.60;1.00;;;23.20;63.80;;;;;;5079466;28;20431;-88
2024/03/15 02:42:25;;;;;;;2.00;1.00;;;23.20;63.70;;;;;;5079284;28;20446;-87
2024/03/15 02:44:52;;;;;;;1.77;1.00;;;23.20;63.70;;;;;;5079216;28;20434;-86
2024/03/15 02:47:20;;;;;;;2.43;1.00;;;23.20;63.70;;;;;;5079515;28;20434;-87
2024/03/15 02:49:47;;;;;;;1.50;1.00;;;23.30;63.80;;;;;;5079613;28;20543;-88
2024/03/15 02:52:14;;;;;;;1.50;1.00;;;23.20;63.80;;;;;;5079284;28;20479;-88
2024/03/15 02:54:41;;;;;;;1.90;1.00;;;23.20;63.80;;;;;;5079256;28;20437;-88
2024/03/15 02:57:07;;;;;;;1.50;1.00;;;23.20;63.70;;;;;;5079249;28;20438;-85
2024/03/15 02:59:34;;;;;;;2.17;1.33;;;23.20;63.80;;;;;;5079295;28;20426;-85
2024/03/15 03:02:02;;;;;;;1.83;1.10;;;23.20;63.80;;;;;;5079005;28;20458;-85
2024/03/15 03:04:29;;;;;;;1.80;1.07;;;23.30;63.80;;;;;;5079192;28;20857;-85
2024/03/15 03:06:56;;;;;;;2.10;1.37;;;23.20;63.80;;;;;;5095555;28;20434;-87
2024/03/15 03:09:25;;;;;;;1.77;1.27;;;23.20;63.80;;;;;;5081063;28;20431;-86
2024/03/15 03:11:52;;;;;;;1.60;1.00;;;23.20;63.70;;;;;;5083352;28;20481;-88
2024/03/15 03:14:19;;;;;;;1.73;0.80;;;23.20;63.70;;;;;;5082660;28;20437;-87
2024/03/15 03:16:45;;;;;;;1.50;0.90;;;23.20;63.70;;;;;;5082820;28;20438;-88
2024/03/15 03:19:16;;;;;;;2.70;1.20;;;23.30;63.80;;;;;;5082494;28;20521;-85
2024/03/15 03:21:45;;;;;;;1.57;1.00;;;23.30;63.80;;;;;;5083872;28;20525;-85
2024/03/15 03:24:14;;;;;;;1.80;1.00;;;23.20;63.70;;;;;;5082690;28;21000;-85
2024/03/15 03:26:41;;;;;;;1.70;1.27;;;23.20;63.80;;;;;;5083278;28;20435;-85
2024/03/15 03:29:08;;;;;;;1.50;0.90;;;23.30;63.80;;;;;;5082406;28;20450;-85
2024/03/15 03:31:35;;;;;;;1.80;1.03;;;23.20;63.70;;;;;;5082026;28;20524;-86
2024/03/15 03:34:03;;;;;;;2.03;1.00;;;23.20;63.70;;;;;;5082137;28;20430;-85
2024/03/15 03:36:31;;;;;;;1.70;0.90;;;23.10;63.60;;;;;;5082627;28;20970;-85
2024/03/15 03:38:58;;;;;;;1.60;1.10;;;23.20;63.70;;;;;;5082883;28;20450;-89
2024/03/15 03:41:25;;;;;;;1.70;1.10;;;23.20;63.70;;;;;;5082365;28;20480;-86
2024/03/15 03:43:52;;;;;;;2.20;1.30;;;23.10;63.60;;;;;;5082239;28;20430;-88
2024/03/15 03:46:21;;;;;;;1.80;1.10;;;23.20;63.80;;;;;;5082244;28;20476;-86
2024/03/15 03:48:48;;;;;;;1.60;0.90;;;23.10;63.60;;;;;;5082679;28;20434;-88
2024/03/15 03:51:15;;;;;;;1.90;1.27;;;23.10;63.60;;;;;;5082019;28;20513;-84
2024/03/15 03:53:42;;;;;;;1.60;1.00;;;23.20;63.80;;;;;;5081806;28;20433;-84
2024/03/15 03:56:08;;;;;;;1.70;1.00;;;23.10;63.60;;;;;;5081793;28;20419;-84
2024/03/15 03:58:35;;;;;;;1.50;0.90;;;23.10;63.60;;;;;;5081938;28;20431;-87
2024/03/15 04:01:03;;;;;;;1.50;0.90;;;23.20;63.70;;;;;;5081496;28;20455;-85
2024/03/15 04:03:30;;;;;;;1.50;0.90;;;23.10;63.60;;;;;;5081890;28;20439;-85
2024/03/15 04:05:58;;;;;;;1.77;1.00;;;23.10;63.60;;;;;;5081758;28;20431;-84
2024/03/15 04:08:25;;;;;;;1.70;1.10;;;23.10;63.60;;;;;;5102987;28;20442;-87
2024/03/15 04:10:52;;;;;;;1.50;1.00;;;23.20;63.70;;;;;;5107640;28;22271;-85
2024/03/15 04:13:19;;;;;;;1.53;1.00;;;23.10;63.60;;;;;;5093098;28;20422;-87
2024/03/15 04:15:47;;;;;;;1.70;1.23;;;23.10;63.60;;;;;;5082047;28;20439;-84
2024/03/15 04:18:15;;;;;;;1.60;0.90;;;23.10;63.70;;;;;;5098269;28;20438;-84
2024/03/15 04:20:42;;;;;;;1.50;0.90;;;23.10;63.60;;;;;;5080570;28;20438;-86
2024/03/15 04:23:09;;;;;;;1.90;1.00;;;23.10;63.60;;;;;;5082011;28;20945;-84
2024/03/15 04:25:37;;;;;;;1.60;1.00;;;23.10;63.60;;;;;;5081205;28;20921;-85
2024/03/15 04:28:04;;;;;;;1.70;1.03;;;23.10;63.60;;;;;;5081689;28;20434;-84
2024/03/15 04:30:31;;;;;;;1.90;1.27;;;23.10;63.60;;;;;;5081072;28;20533;-84
2024/03/15 04:32:58;;;;;;;1.70;1.10;;;23.10;63.60;;;;;;5081357;28;20486;-84
2024/03/15 04:35:27;;;;;;;1.50;0.90;;;23.10;63.60;;;;;;5081283;28;20434;-85
2024/03/15 04:37:54;;;;;;;1.50;0.90;;;23.10;63.60;;;;;;5081605;28;20430;-85
2024/03/15 04:40:21;;;;;;;1.53;0.80;;;23.10;63.70;;;;;;5077693;28;20434;-87
2024/03/15 04:42:48;;;;;;;1.50;0.80;;;23.10;63.60;;;;;;5077350;28;20948;-85
2024/03/15 04:45:17;;;;;;;1.67;0.90;;;23.20;63.80;;;;;;5077886;28;20458;-86
2024/03/15 04:47:44;;;;;;;1.47;0.80;;;23.10;64.50;;;;;;5081995;28;20512;-85
2024/03/15 04:50:11;;;;;;;1.57;0.90;;;23.10;63.60;;;;;;5077743;28;20547;-88
2024/03/15 04:52:39;;;;;;;1.80;1.10;;;23.10;63.60;;;;;;5080383;28;20580;-85
2024/03/15 04:55:09;;;;;;;2.03;1.10;;;23.10;63.60;;;;;;5078017;28;20474;-84
2024/03/15 04:57:36;;;;;;;1.57;0.93;;;23.10;63.70;;;;;;5080690;28;20801;-85
2024/03/15 05:00:08;;;;;;;1.80;1.10;;;23.10;63.60;;;;;;5077362;28;20962;-88
2024/03/15 05:02:35;;;;;;;1.70;1.10;;;23.10;63.60;;;;;;5080432;28;20439;-84
2024/03/15 05:05:03;;;;;;;2.20;1.00;;;23.10;63.70;;;;;;5072459;28;20436;-85
2024/03/15 05:07:30;;;;;;;2.03;0.90;;;23.10;63.70;;;;;;5058702;28;20498;-84
2024/03/15 05:09:56;;;;;;;1.50;0.90;;;23.10;63.70;;;;;;5061383;28;20435;-86
2024/03/15 05:12:23;;;;;;;1.40;0.90;;;23.10;63.60;;;;;;5062152;28;21181;-84
2024/03/15 05:14:50;;;;;;;1.60;1.00;;;23.10;63.60;;;;;;5066864;28;20427;-84
2024/03/15 05:17:17;;;;;;;1.70;1.00;;;23.10;63.70;;;;;;5061855;28;20462;-86
2024/03/15 05:19:44;;;;;;;1.93;1.03;;;23.00;63.50;;;;;;5064862;28;20432;-84
2024/03/15 05:22:11;;;;;;;1.73;1.10;;;23.00;63.60;;;;;;5060532;28;20446;-88
2024/03/15 05:24:38;;;;;;;1.70;0.90;;;23.10;63.60;;;;;;5060399;28;20432;-85
2024/03/15 05:27:05;;;;;;;1.50;0.93;;;23.10;63.70;;;;;;5060523;28;20431;-86
2024/03/15 05:29:32;;;;;;;1.60;1.00;;;23.00;63.60;;;;;;5060633;28;20742;-88
2024/03/15 05:31:58;;;;;;;1.73;1.27;;;23.00;63.70;;;;;;5060295;28;20479;-85
2024/03/15 05:34:26;;;;;;;1.67;0.90;;;23.00;63.60;;;;;;5060541;28;20436;-90
2024/03/15 05:36:53;;;;;;;2.10;1.10;;;23.10;63.70;;;;;;5060793;28;20431;-88
2024/03/15 05:39:21;;;;;;;1.70;1.00;;;23.00;63.70;;;;;;5059832;28;20439;-87
2024/03/15 05:41:48;;;;;;;1.90;1.00;;;23.00;63.90;;;;;;5060470;28;20469;-84
2024/03/15 05:44:15;;;;;;;1.70;1.20;;;23.00;64.10;;;;;;5071192;28;20443;-85
2024/03/15 05:46:43;;;;;;;1.67;1.10;;;23.00;64.20;;;;;;5072666;28;20515;-83
2024/03/15 05:49:09;;;;;;;1.80;1.00;;;23.00;64.20;;;;;;5071968;28;20931;-85
2024/03/15 05:51:36;;;;;;;1.70;1.00;;;23.10;64.40;;;;;;5072132;28;21008;-88
2024/03/15 05:54:04;;;;;;;1.73;1.03;;;23.00;64.30;;;;;;5069297;28;20526;-82
2024/03/15 05:56:30;;;;;;;2.10;0.90;;;23.00;64.40;;;;;;5060122;28;20439;-89
2024/03/15 05:58:57;;;;;;;1.67;1.10;;;23.00;64.30;;;;;;5059608;28;20451;-83
2024/03/15 06:01:24;;;;;;;2.00;1.10;;;23.00;64.30;;;;;;5061143;28;20451;-82
2024/03/15 06:03:51;;;;;;;1.80;1.00;;;23.00;64.30;;;;;;5060530;28;20470;-84
2024/03/15 06:06:18;;;;;;;1.70;1.00;;;23.00;64.30;;;;;;5056293;28;20523;-88
2024/03/15 06:08:45;;;;;;;3.10;1.20;;;23.00;64.30;;;;;;5061767;28;20443;-89
2024/03/15 06:11:12;;;;;;;2.30;1.13;;;23.10;64.50;;;;;;5060266;28;20427;-86
2024/03/15 06:13:39;;;;;;;2.07;1.20;;;23.00;64.30;;;;;;5059940;28;20492;-86
2024/03/15 06:16:10;;;;;;;3.33;1.50;;;23.10;64.40;;;;;;5061900;28;20424;-85
2024/03/15 06:18:37;;;;;;;3.37;1.60;;;23.00;64.40;;;;;;5060922;28;20485;-88
2024/03/15 06:21:04;;;;;;;1.80;1.23;;;23.00;64.40;;;;;;5059831;28;20439;-86
2024/03/15 06:23:31;;;;;;;2.90;1.80;;;23.00;64.50;;;;;;5059461;28;20427;-89
2024/03/15 06:25:58;;;;;;;2.53;1.50;;;23.00;64.60;;;;;;5059602;28;20444;-86
2024/03/15 06:28:26;;;;;;;2.67;1.60;;;23.00;64.70;;;;;;5061671;28;20439;-85
2024/03/15 06:30:55;;;;;;;2.27;1.57;;;23.00;64.70;;;;;;5061426;28;20459;-86
2024/03/15 06:33:22;;;;;;;2.13;1.47;;;23.00;64.70;;;;;;5061255;28;20823;-86
2024/03/15 06:35:52;;;;;;;2.30;1.70;;;23.00;64.80;;;;;;5059837;28;20450;-86
2024/03/15 06:38:30;;;;;;;4.90;1.60;;;23.00;64.80;;;;;;5059321;28;20938;-86
2024/03/15 06:41:07;;;;;;;2.43;1.40;;;23.00;64.80;;;;;;5061528;28;20997;-86
2024/03/15 06:43:41;;;;;;;2.47;1.60;;;23.00;64.70;;;;;;5062809;28;20808;-85
2024/03/15 06:46:09;;;;;;;2.90;1.40;;;23.10;65.10;;;;;;5065263;28;20439;-85
2024/03/15 06:48:44;;;;;;;3.50;1.50;;;23.00;64.90;;;;;;5063595;28;21452;-84
2024/03/15 06:53:56;;;;;;;9.00;1.50;;;23.10;65.10;;;;;;5082277;28;20500;-85
2024/03/15 06:56:23;;;;;;;2.67;1.40;;;23.00;65.00;;;;;;5077501;28;20929;-85
2024/03/15 06:58:50;;;;;;;2.33;1.50;;;23.00;65.00;;;;;;5072542;28;20431;-84
2024/03/15 07:01:17;;;;;;;2.00;1.50;;;23.00;65.00;;;;;;5080529;28;20473;-85
2024/03/15 07:03:44;;;;;;;2.00;1.30;;;23.00;65.10;;;;;;5081026;28;20450;-82
2024/03/15 07:06:11;;;;;;;3.10;1.50;;;23.00;65.10;;;;;;5095794;28;20465;-85
2024/03/15 07:08:39;;;;;;;2.10;1.40;;;23.00;65.10;;;;;;5083112;28;20442;-85
2024/03/15 07:11:06;;;;;;;1.80;1.20;;;23.00;65.00;;;;;;5083703;28;20450;-85
2024/03/15 07:13:33;;;;;;;2.13;1.43;;;23.00;64.90;;;;;;5090423;28;20520;-85
2024/03/15 07:16:00;;;;;;;1.70;1.23;;;23.10;65.10;;;;;;5082464;28;20439;-84
2024/03/15 07:18:27;;;;;;;3.60;1.27;;;23.00;65.00;;;;;;5081617;28;20434;-85
2024/03/15 07:20:56;;;;;;;3.83;1.50;;;23.00;64.90;;;;;;5082245;28;20972;-85
2024/03/15 07:23:24;;;;;;;1.97;1.27;;;23.00;64.90;;;;;;5081163;28;20443;-85
2024/03/15 07:25:51;;;;;;;1.80;1.10;;;23.10;65.10;;;;;;5082176;28;21013;-85
2024/03/15 07:28:19;;;;;;;1.97;1.47;;;23.00;64.90;;;;;;5095000;28;20422;-85
2024/03/15 07:30:46;;;;;;;1.83;1.33;;;23.00;64.90;;;;;;5106726;28;20500;-86
2024/03/15 07:33:13;;;;;;;2.10;1.50;;;23.00;64.80;;;;;;5100712;28;20503;-87
2024/03/15 07:35:40;;;;;;;2.50;1.50;;;23.00;64.90;;;;;;5079975;28;20430;-87
2024/03/15 07:38:09;;;;;;;3.80;1.33;;;23.00;64.90;;;;;;5082222;28;20438;-84
2024/03/15 07:40:37;;;;;;;2.10;1.20;;;23.00;64.90;;;;;;5082842;28;20434;-85
2024/03/15 07:43:04;;;;;;;1.90;1.37;;;23.00;64.90;;;;;;5082171;28;20430;-85
2024/03/15 07:45:31;;;;;;;2.20;1.57;;;23.00;64.90;;;;;;5082279;28;20858;-85
2024/03/15 07:47:57;;;;;;;2.80;1.53;;;23.00;65.00;;;;;;5082671;28;20447;-87
2024/03/15 07:50:25;;;;;;;3.77;1.80;;;23.00;64.90;;;;;;5080599;28;20526;-87
2024/03/15 07:52:53;;;;;;;2.00;1.33;;;23.00;64.90;;;;;;5081975;28;20602;-85
2024/03/15 07:55:23;;;;;;;3.00;1.70;;;23.00;64.90;;;;;;5085678;28;20434;-86
2024/03/15 07:57:50;;;;;;;1.80;1.30;;;23.00;64.90;;;;;;5086919;28;20419;-85
2024/03/15 08:03:13;;;;;;;1.90;1.20;;;22.90;64.70;;;;;;5104587;28;21131;-88
2024/03/15 08:05:39;;;;;;;2.23;1.20;;;23.10;65.10;;;;;;5081738;28;20461;-88
2024/03/15 08:08:06;;;;;;;2.00;1.20;;;23.00;64.90;;;;;;5081865;28;20431;-87
2024/03/15 08:10:33;;;;;;;2.13;1.60;;;23.00;65.00;;;;;;5081935;28;20774;-88
2024/03/15 08:13:00;;;;;;;1.97;1.17;;;23.00;65.00;;;;;;5082389;28;20517;-87
2024/03/15 08:15:32;;;;;;;1.90;1.20;;;23.00;64.90;;;;;;5082174;28;20917;-84
2024/03/15 08:17:59;;;;;;;1.90;1.13;;;23.00;64.90;;;;;;5082974;28;20434;-89
2024/03/15 08:20:26;;;;;;;1.90;1.20;;;23.00;64.90;;;;;;5081847;28;20442;-88
2024/03/15 08:22:55;;;;;;;1.70;1.00;;;23.00;64.90;;;;;;5083644;28;20439;-84
2024/03/15 08:25:22;;;;;;;3.23;1.40;;;23.00;64.80;;;;;;5087488;28;20442;-84
2024/03/15 08:27:49;;;;;;;1.80;1.13;;;23.00;64.90;;;;;;5083068;28;20442;-87
2024/03/15 08:30:16;;;;;;;2.40;1.30;;;23.00;64.90;;;;;;5081453;28;20466;-86
2024/03/15 08:32:43;;;;;;;1.90;1.20;;;23.00;64.90;;;;;;5081090;28;20845;-85
2024/03/15 08:35:14;;;;;;;1.67;1.10;;;23.00;64.80;;;;;;5080958;28;20441;-85
2024/03/15 08:37:43;;;;;;;1.93;1.20;;;23.00;64.90;;;;;;5082318;28;21021;-85
2024/03/15 08:40:12;;;;;;;2.20;1.43;;;23.10;65.00;;;;;;5081386;28;20430;-85
2024/03/15 08:42:40;;;;;;;2.30;1.30;;;23.00;64.90;;;;;;5081693;28;20481;-88
2024/03/15 08:45:08;;;;;;;3.00;1.40;;;23.00;64.90;;;;;;5080866;28;20928;-85
2024/03/15 08:47:35;;;;;;;2.30;1.20;;;23.00;64.80;;;;;;5081545;28;21025;-84
2024/03/15 08:50:03;;;;;;;2.53;1.27;;;23.00;64.90;;;;;;5080837;28;20477;-88
2024/03/15 08:52:30;;;;;;;1.63;1.27;;;23.00;64.90;;;;;;5081153;28;20561;-88
2024/03/15 08:54:57;;;;;;;1.60;1.10;;;23.00;64.90;;;;;;5080649;28;20431;-85
2024/03/15 08:57:24;;;;;;;2.07;1.17;;;23.10;65.00;;;;;;5080873;28;20801;-87
2024/03/15 08:59:51;;;;;;;1.90;1.20;;;23.10;65.10;;;;;;5080492;28;20447;-87
2024/03/15 09:02:18;;;;;;;1.87;1.07;;;23.00;64.90;;;;;;5080633;28;20430;-87
2024/03/15 09:04:46;;;;;;;2.47;1.43;;;23.10;64.90;;;;;;5080666;28;20430;-87
2024/03/15 09:07:14;;;;;;;1.80;1.27;;;23.10;65.00;;;;;;5080812;28;20512;-87
2024/03/15 09:09:43;;;;;;;2.57;1.40;;;23.00;64.90;;;;;;5081535;28;20434;-87
2024/03/15 09:12:10;;;;;;;2.03;1.40;;;23.00;64.90;;;;;;5081203;28;20441;-86
2024/03/15 09:14:37;;;;;;;1.60;0.97;;;23.20;65.20;;;;;;5080448;28;20437;-87
2024/03/15 09:17:12;;;;;;;2.50;1.50;;;23.00;64.90;;;;;;5080750;28;20443;-87
2024/03/15 09:19:39;;;;;;;2.53;1.43;;;23.00;65.00;;;;;;5082415;28;20519;-86
2024/03/15 09:22:06;;;;;;;1.90;1.10;;;23.00;64.90;;;;;;5080062;28;20537;-84
2024/03/15 09:24:33;;;;;;;1.70;1.20;;;23.00;64.90;;;;;;5080184;28;20453;-86
2024/03/15 09:27:00;;;;;;;2.23;1.27;;;23.00;64.80;;;;;;5080219;28;20431;-87
2024/03/15 09:29:27;;;;;;;2.00;1.30;;;23.00;64.90;;;;;;5080123;28;20434;-84
2024/03/15 09:31:56;;;;;;;1.80;1.10;;;23.00;64.90;;;;;;5080171;28;20439;-85
2024/03/15 09:34:23;;;;;;;1.80;1.30;;;23.10;65.10;;;;;;5080546;28;20897;-86
2024/03/15 09:36:51;;;;;;;2.00;1.30;;;23.00;64.90;;;;;;5080255;28;20508;-85
2024/03/15 09:39:18;;;;;;;1.97;1.10;;;23.10;65.10;;;;;;5080272;28;20434;-85
2024/03/15 09:41:45;;;;;;;1.83;1.20;;;23.00;64.90;;;;;;5080097;28;20444;-88
2024/03/15 09:44:13;;;;;;;1.60;0.90;;;23.10;65.00;;;;;;5080404;28;20431;-88
2024/03/15 09:46:40;;;;;;;2.00;1.23;;;23.00;64.90;;;;;;5100578;28;20422;-85
2024/03/15 09:49:07;;;;;;;2.13;1.37;;;23.00;64.80;;;;;;5098318;28;20437;-85
2024/03/15 09:51:33;;;;;;;1.50;0.93;;;23.10;65.00;;;;;;5098796;28;20530;-85
2024/03/15 09:54:02;;;;;;;1.90;1.30;;;23.20;65.20;;;;;;5081604;28;20482;-88
2024/03/15 09:56:29;;;;;;;2.20;1.23;;;23.10;65.00;;;;;;5081797;28;20434;-88
2024/03/15 09:58:57;;;;;;;1.70;1.10;;;23.10;65.10;;;;;;5079660;28;20469;-87
2024/03/15 10:01:23;;;;;;;1.77;1.10;;;23.10;65.10;;;;;;5079681;28;20459;-85
2024/03/15 10:03:50;;;;;;;1.60;1.00;;;23.00;64.90;;;;;;5079430;28;20530;-87
2024/03/15 10:06:17;;;;;;;1.77;1.10;;;23.10;65.10;;;;;;5079702;28;20433;-88
2024/03/15 10:08:44;;;;;;;1.77;1.10;;;23.20;65.20;;;;;;5079529;28;20791;-86
2024/03/15 10:11:11;;;;;;;1.97;1.00;;;23.20;65.30;;;;;;5079534;28;20426;-87
2024/03/15 10:13:38;;;;;;;2.10;1.00;;;23.10;65.10;;;;;;5079933;28;20482;-85
2024/03/15 10:16:05;;;;;;;1.60;1.10;;;23.10;65.10;;;;;;5079930;28;20444;-86
2024/03/15 10:18:34;;;;;;;1.70;1.07;;;23.10;65.10;;;;;;5079873;28;20434;-87
2024/03/15 10:21:01;;;;;;;1.70;1.10;;;23.10;65.10;;;;;;5079934;28;20434;-86
2024/03/15 10:23:28;;;;;;;1.77;1.20;;;23.10;65.10;;;;;;5079330;28;20526;-87
2024/03/15 10:25:55;;;;;;;1.50;1.00;;;23.20;65.20;;;;;;5079856;28;20933;-88
2024/03/15 10:28:21;;;;;;;1.57;1.00;;;23.10;65.20;;;;;;5079575;28;20439;-88
2024/03/15 10:30:49;;;;;;;1.70;1.00;;;23.10;65.00;;;;;;5079119;28;20458;-86
2024/03/15 10:33:16;;;;;;;1.60;1.10;;;23.10;65.20;;;;;;5079503;28;20527;-88
2024/03/15 10:35:43;;;;;;;1.70;1.10;;;23.10;65.10;;;;;;5079551;28;20434;-86
2024/03/15 10:38:12;;;;;;;2.10;1.20;;;23.10;65.30;;;;;;5079596;28;20811;-87
2024/03/15 10:40:40;;;;;;;2.43;1.20;;;23.20;65.40;;;;;;5079926;28;20438;-85
2024/03/15 10:43:09;;;;;;;1.70;1.00;;;23.20;65.30;;;;;;5079639;28;20438;-86
2024/03/15 10:45:36;;;;;;;2.37;1.00;;;23.20;65.50;;;;;;5079916;28;20430;-88
2024/03/15 10:48:03;;;;;;;1.90;1.00;;;23.30;65.60;;;;;;5084680;28;20435;-88
2024/03/15 10:50:30;;;;;;;1.80;0.90;;;23.30;65.30;;;;;;5104536;28;20477;-86
2024/03/15 10:52:57;;;;;;;1.80;1.40;;;23.30;65.20;;;;;;5104695;28;20441;-88
2024/03/15 10:55:24;;;;;;;1.90;1.10;;;23.30;65.20;;;;;;5080845;28;20930;-89
2024/03/15 10:57:51;;;;;;;2.57;1.00;;;23.20;65.20;;;;;;5079522;28;20438;-88
2024/03/15 11:00:18;;;;;;;1.70;1.00;;;23.20;65.40;;;;;;5079112;28;20461;-85
2024/03/15 11:02:45;;;;;;;1.63;1.10;;;23.30;65.40;;;;;;5079446;28;20430;-86
2024/03/15 11:05:17;;;;;;;2.03;0.97;;;23.30;65.30;;;;;;5079272;28;20439;-89
2024/03/15 11:07:44;;;;;;;2.00;1.20;;;23.30;65.50;;;;;;5079223;28;20443;-87
2024/03/15 11:10:11;;;;;;;1.60;1.00;;;23.30;65.70;;;;;;5079355;28;20521;-86
2024/03/15 11:12:38;;;;;;;1.60;1.10;;;23.40;65.80;;;;;;5079206;28;20492;-88
2024/03/15 11:15:16;;;;;;;1.60;1.00;;;23.40;65.70;;;;;;5079103;28;20483;-87
2024/03/15 11:17:42;;;;;;;1.80;1.17;;;23.40;65.80;;;;;;5080132;28;20517;-86
2024/03/15 11:20:12;;;;;;;1.80;1.10;;;23.40;65.70;;;;;;5078683;28;20439;-85
2024/03/15 11:22:39;;;;;;;1.80;1.00;;;23.40;65.90;;;;;;5078825;28;20930;-90
2024/03/15 11:25:06;;;;;;;1.60;0.90;;;23.40;65.70;;;;;;5079180;28;20446;-84
2024/03/15 11:27:33;;;;;;;2.10;1.00;;;23.50;65.70;;;;;;5080162;28;20435;-86
2024/03/15 11:30:00;;;;;;;2.43;1.20;;;23.50;65.70;;;;;;5080121;28;20450;-85
2024/03/15 11:32:27;;;;;;;2.47;1.00;;;23.50;65.80;;;;;;5082878;28;20534;-87
2024/03/15 11:34:54;;;;;;;1.70;1.10;;;23.60;66.00;;;;;;5082603;28;20509;-88
2024/03/15 11:37:23;;;;;;;1.90;1.00;;;23.60;65.90;;;;;;5082928;28;20443;-85
2024/03/15 11:39:59;;;;;;;1.83;1.00;;;23.60;65.80;;;;;;5082693;28;20487;-86
2024/03/15 11:42:26;;;;;;;2.00;1.10;;;23.60;65.70;;;;;;5082913;28;20483;-88
2024/03/15 11:44:54;;;;;;;1.80;1.00;;;23.60;65.80;;;;;;5082497;28;20925;-88
2024/03/15 11:47:21;;;;;;;1.93;1.10;;;23.70;65.90;;;;;;5083468;28;20445;-88
2024/03/15 11:49:54;;;;;;;3.00;1.00;;;23.60;65.80;;;;;;5082827;28;20478;-89
2024/03/15 11:52:21;;;;;;;2.80;1.23;;;23.70;65.80;;;;;;5083061;28;20442;-88
2024/03/15 11:54:52;;;;;;;2.47;1.20;;;23.60;65.70;;;;;;5082542;28;20470;-89
2024/03/15 11:57:19;;;;;;;1.83;1.00;;;23.70;65.70;;;;;;5083130;28;20438;-89
2024/03/15 11:59:47;;;;;;;4.60;1.23;;;23.70;65.70;;;;;;5083375;28;20987;-91
2024/03/15 12:02:14;;;;;;;3.57;1.20;;;23.70;65.60;;;;;;5082521;28;20443;-88
2024/03/15 12:04:41;;;;;;;2.30;1.30;;;23.60;65.40;;;;;;5082644;28;20526;-90
2024/03/15 12:07:08;;;;;;;3.33;1.30;;;23.60;65.40;;;;;;5082677;28;21293;-91
2024/03/15 12:09:40;;;;;;;3.20;1.00;;;23.60;65.50;;;;;;5082372;28;20453;-88
2024/03/15 12:12:07;;;;;;;1.90;1.07;;;23.60;65.70;;;;;;5083331;28;20434;-88
2024/03/15 12:14:34;;;;;;;3.70;1.30;;;23.60;66.00;;;;;;5082388;28;20831;-86
2024/03/15 12:17:01;;;;;;;4.90;1.10;;;23.60;66.10;;;;;;5082069;28;20443;-89
2024/03/15 12:19:28;;;;;;;2.90;1.47;;;23.60;66.10;;;;;;5082324;28;20944;-87
2024/03/15 12:21:55;;;;;;;4.43;1.10;;;23.60;66.20;;;;;;5081919;28;20445;-88
2024/03/15 12:24:23;;;;;;;2.10;0.90;;;23.60;66.10;;;;;;5082280;28;20800;-89
2024/03/15 12:26:50;;;;;;;2.40;1.10;;;23.60;66.00;;;;;;5082359;28;20478;-89
2024/03/15 12:29:17;;;;;;;3.93;0.97;;;23.60;66.10;;;;;;5081819;28;20455;-87
2024/03/15 12:31:44;;;;;;;2.10;1.10;;;23.60;67.00;;;;;;5082269;28;20438;-89
2024/03/15 12:34:11;;;;;;;2.43;1.20;;;23.60;66.10;;;;;;5082017;28;20828;-89
2024/03/15 12:36:38;;;;;;;2.10;1.00;;;23.60;66.10;;;;;;5082097;28;20806;-89
2024/03/15 12:39:06;;;;;;;2.10;1.00;;;23.60;66.20;;;;;;5081947;28;20442;-88
2024/03/15 12:41:33;;;;;;;1.60;0.80;;;23.60;67.10;;;;;;5080702;28;20845;-89
2024/03/15 12:44:01;;;;;;;1.80;1.00;;;23.60;66.30;;;;;;5081789;28;20439;-88
2024/03/15 12:46:28;;;;;;;3.93;1.43;;;23.60;67.10;;;;;;5082534;28;20438;-89
2024/03/15 12:48:58;;;;;;;2.40;0.97;;;23.60;66.40;;;;;;5082040;28;20431;-88
2024/03/15 12:51:25;;;;;;;4.50;1.33;;;23.60;66.50;;;;;;5082149;28;20470;-87
2024/03/15 12:53:55;;;;;;;1.73;0.93;;;23.60;66.50;;;;;;5081957;28;20466;-89